Date,TemperatureHighF,TemperatureAvgF,TemperatureLowF,DewpointHighF,DewpointAvgF,DewpointLowF,HumidityHigh,HumidityAvg,HumidityLow,PressureMaxIn,PressureMinIn,WindSpeedMaxMPH,WindSpeedAvgMPH,GustSpeedMaxMPH,PrecipitationSumIn
2013-1-1,28,22,8,25,17,5,89,81,69,29.98,29.79,18,8,28,0.04
2013-1-2,20,15,6,18,11,4,92,83,76,30.20,29.97,15,5,22,0.00
2013-1-3,24,15,-1,20,10,-5,88,81,70,30.21,30.05,16,2,21,0.00
2013-1-4,30,26,24,21,19,16,84,74,63,30.05,29.91,18,7,25,0.00
2013-1-5,29,26,18,24,21,16,90,81,74,30.29,29.97,20,7,36,0.00
2013-1-6,36,29,18,28,24,15,93,81,65,30.20,29.95,10,2,16,0.04
2013-1-7,32,24,14,28,20,11,92,83,69,30.38,30.04,18,5,23,0.04
2013-1-8,40,25,17,26,20,15,93,82,51,30.42,30.32,5,1,9,0.07
2013-1-9,40,29,14,33,23,12,92,80,59,30.42,30.10,21,3,39,0.10
2013-1-10,37,30,21,26,23,18,90,74,63,30.57,30.24,31,8,40,0.10
2013-1-11,36,31,20,35,26,18,94,83,54,30.54,30.13,16,3,19,0.12
2013-1-12,49,38,33,44,36,32,96,93,78,30.16,30.11,5,0,7,0.01
2013-1-13,47,38,33,47,37,32,97,96,94,30.13,29.96,8,1,11,0.01
2013-1-14,48,38,28,47,33,21,97,84,65,30.31,29.89,18,5,22,0.03
2013-1-15,30,27,23,22,20,19,87,77,70,30.35,30.23,10,3,13,0.03
2013-1-16,31,27,20,29,24,18,93,91,80,30.21,29.84,5,0,7,0.01
2013-1-17,30,24,17,25,20,11,94,83,75,30.13,29.90,18,4,18,0.01
2013-1-18,19,12,4,11,6,-1,86,75,64,30.43,30.05,13,4,17,0.00
2013-1-19,41,31,18,26,18,10,79,58,46,30.28,29.79,8,2,19,0.19
2013-1-20,40,30,16,30,19,8,82,65,35,29.97,29.57,21,7,37,0.01
2013-1-21,20,16,10,15,9,3,89,75,62,30.03,29.82,11,3,23,0.01
2013-1-22,13,6,1,11,-4,-10,92,64,49,30.16,29.81,21,8,29,0.00
2013-1-23,7,0,-10,-2,-7,-14,84,73,54,30.23,30.14,14,4,24,0.00
2013-1-24,8,1,-11,1,-5,-15,85,75,61,30.47,30.18,23,7,31,0.00
2013-1-25,16,9,2,8,2,-3,87,72,50,30.47,30.07,19,3,19,0.00
2013-1-26,14,9,2,5,3,-2,88,77,65,30.37,30.05,17,6,25,0.00
2013-1-27,22,13,2,9,6,-1,90,73,45,30.53,30.36,14,5,20,0.00
2013-1-28,37,23,8,36,20,4,95,87,75,30.50,30.00,6,1,14,0.00
2013-1-29,42,39,35,39,36,33,95,91,81,30.13,30.00,10,2,14,0.24
2013-1-30,52,47,39,51,46,38,97,96,93,30.00,29.27,13,3,18,0.29
2013-1-31,50,33,20,49,25,8,96,74,54,29.64,28.93,41,10,45,0.14
2013-2-1,20,16,13,13,9,4,87,74,65,30.19,29.63,22,10,31,0.14
2013-2-2,19,14,10,11,7,4,88,75,56,30.23,30.04,9,3,17,0.00
2013-2-3,23,16,6,15,12,4,90,83,63,30.04,29.79,7,1,11,0.00
2013-2-4,18,15,11,15,8,6,91,77,61,29.96,29.80,17,6,26,0.00
2013-2-5,28,20,13,19,15,10,89,81,64,30.00,29.88,6,1,10,0.01
2013-2-6,25,20,5,20,13,0,92,74,50,30.37,29.90,20,5,23,0.01
2013-2-7,28,16,3,13,6,0,87,67,44,30.52,30.34,11,2,14,0.01
2013-2-8,31,26,21,27,22,14,91,85,69,30.34,29.78,10,4,15,0.00
2013-2-9,21,15,7,19,10,4,91,81,60,30.39,29.84,27,10,27,0.00
2013-2-10,39,18,-4,15,4,-8,90,62,26,30.54,30.29,11,1,14,0.10
2013-2-11,38,33,27,37,28,6,96,82,37,30.28,29.66,18,4,23,0.12
2013-2-12,32,30,27,29,24,20,87,79,75,29.94,29.70,24,9,28,0.12
2013-2-13,38,30,26,25,21,18,85,72,51,29.92,29.70,12,3,16,0.00
2013-2-14,39,27,17,28,21,13,92,78,57,29.97,29.71,7,2,13,0.00
2013-2-15,40,33,24,29,26,21,92,75,49,29.95,29.89,13,3,20,0.01
2013-2-16,27,21,16,25,14,7,91,74,61,29.95,29.79,11,5,18,0.01
2013-2-17,18,12,6,6,3,1,84,68,58,30.00,29.71,25,12,35,0.01
2013-2-18,24,13,6,13,6,2,84,72,49,30.27,30.00,19,8,28,0.00
2013-2-19,38,27,16,31,22,11,94,81,56,30.19,29.67,17,3,23,0.01
2013-2-20,27,18,15,24,12,8,89,76,62,29.96,29.68,20,10,32,0.01
2013-2-21,15,14,13,11,9,7,92,81,74,30.43,29.94,18,9,30,0.00
2013-2-22,33,23,9,22,17,6,91,78,61,30.43,30.23,12,3,15,0.03
2013-2-23,37,33,28,34,30,23,94,91,83,30.23,29.83,12,4,18,0.01
2013-2-24,34,29,25,32,26,22,95,89,80,29.99,29.77,15,5,20,0.01
2013-2-25,31,27,17,28,24,15,94,87,79,30.26,29.99,12,4,14,0.01
2013-2-26,38,26,12,27,21,10,93,80,62,30.30,29.94,10,2,17,0.00
2013-2-27,40,34,28,36,32,25,95,90,82,29.93,29.50,14,4,26,0.54
2013-2-28,37,32,28,32,29,26,95,89,74,29.61,29.54,8,2,11,0.15
2013-3-1,32,29,24,28,25,21,91,87,82,29.81,29.61,14,8,21,0.01
2013-3-2,25,22,18,21,19,15,88,86,82,29.80,29.75,15,8,20,0.01
2013-3-3,23,19,16,17,14,12,87,82,76,29.83,29.75,15,8,21,0.00
2013-3-4,23,20,17,20,17,14,92,85,78,29.97,29.81,18,10,24,0.00
2013-3-5,33,24,19,26,21,17,96,86,72,30.08,29.97,11,4,19,0.00
2013-3-6,35,31,24,29,25,22,91,79,73,30.07,29.96,13,4,22,0.01
2013-3-7,31,28,25,26,23,20,92,82,69,30.16,30.05,11,5,19,0.01
2013-3-8,35,27,16,30,23,14,92,86,74,30.32,30.10,14,7,22,0.10
2013-3-9,47,28,9,26,18,6,93,72,36,30.39,30.31,10,3,12,0.03
2013-3-10,52,36,18,31,22,14,88,61,32,30.35,30.21,10,2,17,0.03
2013-3-11,47,42,36,41,32,25,92,67,56,30.24,29.95,12,4,20,0.00
2013-3-12,47,41,33,46,40,30,96,93,89,29.95,29.66,15,5,21,0.88
2013-3-13,37,31,24,30,26,19,91,79,58,29.85,29.77,14,5,19,0.88
2013-3-14,25,20,14,18,11,6,86,69,50,29.96,29.83,28,12,34,0.00
2013-3-15,30,25,17,27,18,10,89,75,63,29.98,29.72,14,6,24,0.00
2013-3-16,29,24,13,23,16,9,88,75,50,29.88,29.73,16,4,22,0.00
2013-3-17,27,19,8,17,11,5,92,71,51,30.32,29.88,19,6,24,0.00
2013-3-18,32,20,7,24,11,3,92,73,30,30.40,29.98,11,2,14,0.00
2013-3-19,38,31,23,32,28,19,95,88,74,29.98,29.66,12,4,25,0.31
2013-3-20,30,24,16,22,18,13,89,77,59,29.83,29.76,14,6,21,0.31
2013-3-21,29,18,2,16,9,-2,92,71,41,29.83,29.67,13,4,19,0.03
2013-3-22,28,23,14,22,18,8,88,82,69,29.86,29.72,18,6,29,0.03
2013-3-23,32,27,25,23,20,17,92,74,60,29.94,29.82,20,10,26,0.00
2013-3-24,36,29,20,22,20,16,85,70,55,29.94,29.73,15,5,16,0.01
2013-3-25,38,32,27,24,23,21,79,68,51,29.73,29.49,12,2,16,0.01
2013-3-26,37,33,29,29,25,21,86,74,59,29.87,29.61,16,5,22,0.01
2013-3-27,40,32,20,29,25,17,89,76,53,29.98,29.86,19,7,22,0.00
2013-3-28,37,34,30,30,28,27,89,81,73,30.14,29.96,13,6,17,0.01
2013-3-29,37,33,26,30,28,24,92,80,73,30.15,30.09,13,4,16,0.01
2013-3-30,46,34,23,29,24,20,100,71,37,30.18,30.08,14,3,19,0.00
2013-3-31,49,36,22,36,28,19,94,75,44,30.12,29.70,10,2,24,0.18
2013-4-1,45,34,24,39,29,15,95,82,49,29.86,29.58,22,7,36,0.13
2013-4-2,30,24,20,18,14,10,80,65,47,30.06,29.85,20,10,31,0.13
2013-4-3,30,25,22,18,15,12,80,65,51,30.33,30.04,17,10,29,0.00
2013-4-4,49,33,16,26,18,13,89,59,30,30.38,30.00,10,2,14,0.00
2013-4-5,45,34,24,27,21,18,81,61,40,30.00,29.78,21,7,25,0.00
2013-4-6,44,30,22,22,14,6,83,55,21,30.28,30.00,19,6,23,0.00
2013-4-7,56,45,30,38,27,15,82,52,40,30.25,29.90,13,4,24,0.00
2013-4-8,63,46,30,45,35,28,93,69,33,30.07,29.90,9,2,14,0.00
2013-4-9,61,52,42,48,43,40,94,72,48,30.00,29.84,21,4,25,0.01
2013-4-10,58,51,45,54,48,41,96,90,74,29.94,29.75,21,2,25,0.20
2013-4-11,48,41,34,46,37,25,95,87,59,30.00,29.80,12,3,14,0.06
2013-4-12,42,38,34,40,36,33,95,91,87,29.97,29.67,14,3,22,0.27
2013-4-13,46,41,36,36,33,31,95,74,63,29.88,29.74,11,4,17,0.01
2013-4-14,42,36,30,34,28,25,88,74,56,30.20,29.88,15,6,23,0.01
2013-4-15,61,45,28,40,33,25,89,64,44,30.33,30.20,11,3,17,0.00
2013-4-16,56,49,45,53,44,34,94,84,65,30.29,30.05,9,3,18,0.23
2013-4-17,56,46,37,46,36,33,92,72,45,30.29,30.14,15,5,18,0.01
2013-4-18,56,47,34,50,39,31,94,74,51,30.29,29.99,17,4,27,0.01
2013-4-19,65,57,46,60,54,44,95,90,82,30.01,29.50,13,5,23,0.50
2013-4-20,46,39,30,44,30,20,94,70,50,30.31,29.64,18,8,24,0.01
2013-4-21,45,34,26,25,22,18,79,63,37,30.64,30.32,11,5,19,0.01
2013-4-22,53,40,29,29,24,20,78,55,31,30.66,30.47,10,2,21,0.00
2013-4-23,49,40,29,41,34,26,92,78,58,30.47,30.12,7,2,12,0.00
2013-4-24,70,51,31,53,42,29,96,75,46,30.11,29.73,23,2,25,0.12
2013-4-25,54,42,34,45,30,23,87,65,31,30.25,29.84,16,6,25,0.12
2013-4-26,51,42,33,34,30,27,83,65,45,30.45,30.25,12,4,20,0.00
2013-4-27,61,46,28,40,31,23,89,62,35,30.45,30.29,12,2,17,0.00
2013-4-28,69,54,35,39,36,32,88,55,30,30.29,30.09,10,2,16,0.00
2013-4-29,54,48,45,46,43,34,94,85,48,30.18,30.11,10,3,14,0.11
2013-4-30,64,52,46,50,46,36,94,79,51,30.29,30.16,7,2,13,0.12
2013-5-1,73,55,37,41,35,28,86,52,22,30.42,30.29,7,1,13,0.00
2013-5-2,76,58,38,49,40,36,94,58,25,30.41,30.25,9,2,11,0.00
2013-5-3,69,58,44,44,36,23,77,48,18,30.35,30.23,9,2,13,0.00
2013-5-4,71,55,37,46,39,33,85,58,27,30.29,30.14,11,2,13,0.00
2013-5-5,71,55,38,44,36,22,95,56,17,30.20,30.09,10,2,14,0.00
2013-5-6,72,56,36,49,39,32,95,58,26,30.17,30.04,8,2,13,0.00
2013-5-7,74,60,45,53,48,43,96,69,35,30.11,29.99,8,1,14,0.00
2013-5-8,61,56,50,58,54,49,95,92,85,30.06,29.89,3,0,10,0.82
2013-5-9,60,54,48,56,51,47,96,91,77,29.94,29.85,4,0,8,0.24
2013-5-10,72,57,44,58,51,43,97,82,46,29.98,29.83,5,1,13,0.02
2013-5-11,62,57,52,59,55,49,95,92,83,29.83,29.62,7,2,15,0.37
2013-5-12,51,47,34,49,38,26,95,74,40,29.85,29.62,17,5,29,0.01
2013-5-13,42,38,33,32,29,25,88,70,57,30.10,29.85,14,6,23,0.01
2013-5-14,52,40,28,30,28,23,93,64,38,30.14,30.02,12,4,19,0.00
2013-5-15,67,50,31,55,41,27,89,74,57,30.05,29.64,9,2,16,0.10
2013-5-16,72,61,45,48,41,36,90,51,29,29.83,29.70,20,7,24,0.10
2013-5-17,61,52,42,43,40,37,87,66,44,30.20,29.83,12,5,19,0.00
2013-5-18,64,53,37,48,43,36,95,73,49,30.27,30.20,7,1,12,0.00
2013-5-19,56,54,51,53,51,46,93,90,84,30.24,30.11,13,2,13,0.02
2013-5-20,79,63,53,65,58,52,95,84,58,30.10,29.90,7,1,12,0.02
2013-5-21,84,69,55,68,62,54,97,79,48,29.93,29.72,10,2,16,0.00
2013-5-22,77,68,59,71,65,58,96,89,76,29.79,29.70,12,1,22,0.58
2013-5-23,70,63,56,65,60,55,96,90,81,29.78,29.67,8,1,12,0.28
2013-5-24,57,44,38,55,43,36,96,93,92,29.97,29.61,17,7,23,0.38
2013-5-25,42,40,38,40,38,36,93,92,90,30.00,29.92,22,12,30,0.81
2013-5-26,53,45,36,40,37,34,92,76,48,30.14,29.91,26,10,29,0.04
2013-5-27,65,49,31,43,37,29,96,68,34,30.21,30.11,15,3,18,0.04
2013-5-28,60,50,38,53,46,36,95,86,52,30.18,30.08,5,0,9,0.14
2013-5-29,77,64,52,69,60,51,97,89,71,30.09,29.91,9,1,28,0.67
2013-5-30,82,68,56,69,62,55,97,83,55,30.08,30.01,12,2,16,0.68
2013-5-31,61,58,56,59,57,55,98,96,95,30.08,30.04,1,0,3,0.00
2013-6-3,64,58,47,56,51,44,92,79,63,29.88,29.79,11,5,17,0.01
2013-6-4,64,52,42,45,41,34,93,68,34,30.12,29.89,17,6,24,0.01
2013-6-5,69,53,38,51,43,36,95,73,35,30.19,30.06,5,1,8,0.00
2013-6-6,66,56,48,53,50,45,95,81,59,30.10,29.93,5,1,13,0.19
2013-6-7,58,55,52,57,54,51,96,95,94,29.92,29.69,5,0,11,0.26
2013-6-8,65,57,51,59,54,50,96,90,78,30.04,29.67,10,4,13,0.26
2013-6-9,70,59,48,59,53,47,97,82,58,30.15,30.04,13,2,14,0.01
2013-6-10,60,56,50,59,55,48,97,95,94,30.15,29.79,2,0,7,1.03
2013-6-11,66,60,57,63,58,54,97,93,87,29.78,29.57,13,4,22,0.16
2013-6-12,66,57,49,55,52,48,95,82,62,29.82,29.65,14,6,22,0.16
2013-6-13,54,51,47,53,50,46,97,95,91,29.81,29.53,5,1,14,1.15
2013-6-14,68,58,48,58,52,46,95,83,63,29.88,29.64,19,6,24,1.21
2013-6-15,70,58,45,53,48,44,96,73,43,29.98,29.88,14,3,19,0.00
2013-6-16,68,58,46,62,54,44,95,87,69,29.95,29.71,8,1,12,0.02
2013-6-17,76,64,53,65,58,52,97,84,54,29.87,29.78,18,2,24,0.15
2013-6-18,71,60,51,62,56,50,97,88,72,29.90,29.81,9,2,13,0.01
2013-6-19,66,56,46,49,47,43,95,73,46,30.14,29.89,13,4,18,0.01
2013-6-20,74,58,40,58,49,38,99,74,45,30.23,30.15,6,1,12,0.00
2013-6-21,77,64,50,65,58,49,97,81,58,30.23,30.15,6,1,9,0.00
2013-6-22,79,67,54,67,60,52,96,80,56,30.17,30.02,7,1,13,0.00
2013-6-23,85,73,60,71,65,59,96,78,51,30.09,29.94,10,1,12,0.00
2013-6-24,82,70,60,71,65,58,96,84,61,29.99,29.88,11,2,16,0.00
2013-6-25,82,69,57,70,64,56,97,84,65,29.94,29.72,9,2,14,0.03
2013-6-26,76,68,61,68,64,59,95,87,73,29.77,29.72,12,3,13,0.04
2013-6-27,80,68,58,71,64,57,97,87,63,29.77,29.42,5,0,9,0.24
2013-6-28,76,67,59,67,63,58,95,87,69,29.44,29.24,9,2,19,0.03
2013-6-29,75,65,57,66,61,56,97,87,63,29.64,29.41,9,1,15,0.04
2013-6-30,81,68,57,70,63,56,97,86,61,29.84,29.64,6,1,10,0.05
2013-7-1,76,67,61,70,65,59,97,92,79,29.94,29.82,4,0,9,0.08
2013-7-2,79,70,66,73,68,65,97,92,78,30.06,29.93,7,0,12,0.19
2013-7-3,80,72,66,72,68,65,96,88,72,30.15,30.05,5,1,11,0.01
2013-7-4,84,74,64,74,68,63,97,85,65,30.16,30.04,7,1,13,0.01
2013-7-5,85,76,68,74,70,67,96,80,60,30.10,29.98,9,2,15,0.00
2013-7-6,81,74,67,71,68,66,95,84,68,30.04,29.95,11,3,15,0.00
2013-7-7,86,75,65,74,69,64,97,84,60,30.00,29.84,8,1,14,0.00
2013-7-8,80,71,64,70,66,63,95,86,66,29.97,29.87,8,2,13,0.05
2013-7-9,83,71,63,72,66,62,97,86,63,30.01,29.90,3,0,8,0.06
2013-7-10,79,71,67,72,68,65,96,90,74,29.91,29.71,6,1,9,0.16
2013-7-11,74,69,60,68,62,57,96,80,58,29.90,29.70,12,3,14,0.16
2013-7-12,76,67,58,66,61,56,95,81,64,30.07,29.90,5,1,11,0.00
2013-7-13,77,68,62,71,65,60,96,89,78,30.24,30.07,4,0,9,0.05
2013-7-14,82,72,63,74,68,62,97,88,71,30.27,30.17,4,1,7,0.05
2013-7-15,84,74,66,71,68,65,97,83,59,30.19,30.10,11,2,14,0.01
2013-7-16,84,73,62,71,65,60,96,77,52,30.17,30.10,10,2,15,0.01
2013-7-17,88,75,62,74,68,61,97,79,51,30.16,29.99,10,1,11,0.00
2013-7-18,87,76,67,74,70,65,97,83,63,30.00,29.89,9,2,13,0.00
2013-7-19,88,77,64,74,70,63,97,79,55,29.90,29.69,10,2,16,0.00
2013-7-20,79,72,62,71,67,61,96,85,68,29.79,29.66,11,2,15,0.04
2013-7-21,79,68,56,66,61,54,96,80,60,29.91,29.79,8,2,12,0.04
2013-7-22,82,71,60,69,64,59,97,82,54,29.91,29.72,5,1,9,0.62
2013-7-23,78,70,62,70,66,60,97,89,70,29.71,29.51,9,2,15,0.14
2013-7-24,67,61,50,63,57,48,97,85,73,29.94,29.57,14,5,19,0.18
2013-7-25,70,58,45,57,50,44,96,78,59,30.03,29.94,7,2,11,0.01
2013-7-26,75,61,48,60,54,46,97,79,53,30.03,29.96,8,2,13,0.01
2013-7-27,80,66,50,64,58,49,96,79,52,30.00,29.86,5,1,15,0.01
2013-7-28,66,64,61,65,62,60,96,94,90,29.91,29.84,3,0,9,1.12
2013-7-29,74,64,54,62,57,52,97,81,49,30.06,29.91,9,2,12,1.12
2013-7-30,69,58,48,59,54,47,97,85,63,30.13,30.06,10,2,13,0.01
2013-7-31,76,62,50,62,56,49,97,83,57,30.13,29.97,8,1,8,0.01
2013-8-1,64,61,57,63,60,56,97,96,94,29.98,29.78,4,0,9,0.34
2013-8-2,74,62,53,62,57,52,97,86,57,29.86,29.77,7,1,13,0.17
2013-8-3,73,63,53,61,55,50,97,79,48,29.85,29.79,11,3,22,0.17
2013-8-4,68,58,49,59,53,47,96,83,59,29.95,29.82,12,4,20,0.06
2013-8-5,68,57,47,52,49,45,95,77,51,30.02,29.94,13,3,21,0.06
2013-8-6,74,59,43,58,52,42,96,80,52,30.07,30.02,3,0,9,0.00
2013-8-7,67,62,57,63,60,55,96,93,85,30.06,29.96,8,1,11,0.15
2013-8-8,78,68,61,71,66,60,97,92,78,29.98,29.90,4,1,11,0.17
2013-8-9,75,69,65,71,68,62,96,94,84,29.91,29.73,8,1,11,1.05
2013-8-10,72,64,51,62,57,49,93,79,52,30.02,29.83,14,5,22,1.05
2013-8-11,72,59,45,59,53,44,96,82,58,30.09,29.98,8,2,13,0.00
2013-8-12,76,62,50,62,56,49,96,81,55,30.01,29.86,6,1,12,0.00
2013-8-13,74,63,57,66,60,53,95,90,74,29.86,29.61,11,2,18,0.47
2013-8-14,63,55,48,54,50,45,92,83,70,29.99,29.72,15,6,23,0.47
2013-8-15,66,54,44,54,48,42,96,82,57,30.10,30.00,12,2,16,0.00
2013-8-16,72,58,48,58,52,47,96,82,54,30.17,30.09,6,1,12,0.00
2013-8-17,75,59,46,60,53,44,96,81,48,30.26,30.18,6,1,8,0.01
2013-8-18,71,61,53,63,57,51,96,88,69,30.23,30.08,3,0,5,0.01
2013-8-19,74,62,54,62,57,52,96,86,65,30.08,29.98,8,1,14,0.00
2013-8-20,76,63,53,63,57,52,96,82,53,30.11,30.02,11,1,13,0.01
2013-8-21,80,64,52,67,58,51,96,83,54,30.15,30.01,7,1,11,0.01
2013-8-22,80,68,55,67,62,54,96,81,54,30.02,29.79,9,2,12,0.01
2013-8-23,71,64,54,64,57,52,96,78,56,30.09,29.86,11,3,16,0.01
2013-8-24,73,59,47,56,51,46,95,77,45,30.31,30.09,7,1,10,0.01
2013-8-25,76,60,48,60,54,47,96,80,50,30.35,30.15,6,1,11,0.01
2013-8-26,74,64,58,67,62,55,95,90,76,30.17,29.82,9,1,12,0.80
2013-8-27,75,67,61,69,64,60,95,89,74,29.88,29.79,9,2,13,0.01
2013-8-28,79,65,59,71,63,58,96,92,72,29.87,29.77,6,0,11,0.26
2013-8-29,79,66,56,69,63,55,97,90,66,29.96,29.86,7,1,10,0.04
2013-8-30,80,68,61,68,63,60,96,86,58,29.95,29.76,6,0,8,0.01
2013-8-31,82,69,62,72,66,61,96,90,72,29.77,29.66,5,1,19,0.05
2013-9-1,81,69,61,72,65,60,96,88,69,29.78,29.72,9,1,14,0.06
2013-9-2,76,67,60,70,65,59,96,92,79,29.75,29.60,9,0,17,1.74
2013-9-3,66,61,58,60,57,55,96,86,68,29.84,29.67,12,4,17,0.03
2013-9-4,72,62,54,59,55,51,93,79,54,29.94,29.84,13,4,18,0.03
2013-9-5,62,57,45,57,48,41,96,75,49,30.14,29.87,15,5,19,0.06
2013-9-6,63,49,36,48,41,35,95,78,45,30.25,30.11,7,1,11,0.00
2013-9-7,72,55,41,59,49,40,96,82,46,30.12,29.87,5,0,11,0.02
2013-9-8,63,56,43,58,51,41,96,84,59,30.07,29.79,18,4,22,0.15
2013-9-9,68,53,37,56,47,35,96,81,54,30.20,30.06,6,1,11,0.01
2013-9-10,80,68,60,73,65,56,95,90,76,30.11,29.98,7,1,13,0.23
2013-9-11,88,72,64,76,68,63,97,89,58,30.05,29.90,6,1,9,0.53
2013-9-12,76,66,60,71,64,59,96,92,78,29.90,29.64,9,1,16,0.32
2013-9-13,61,56,48,59,53,44,96,89,81,29.84,29.59,17,6,20,0.01
2013-9-14,53,48,42,46,44,40,93,85,73,30.11,29.84,12,5,16,0.02
2013-9-15,64,49,37,52,43,36,98,84,51,30.21,30.07,8,1,8,0.00
2013-9-16,58,51,41,52,47,38,96,88,76,30.28,30.05,14,4,16,0.01
2013-9-17,60,46,36,44,39,34,94,78,47,30.44,30.28,7,2,12,0.01
2013-9-18,68,49,36,50,42,34,96,80,43,30.35,30.17,3,1,10,0.01
2013-9-19,73,54,38,56,47,37,96,81,42,30.19,30.04,5,0,6,0.01
2013-9-20,75,57,42,60,51,40,96,83,53,30.08,29.93,7,1,9,0.01
2013-9-21,69,59,52,57,51,-100,95,82,55,29.94,29.61,7,-10,24,0.27
2013-9-22,56,51,45,54,46,40,95,84,68,29.90,29.60,14,7,20,0.30
2013-9-23,53,45,40,43,39,37,89,80,64,30.07,29.90,16,7,21,0.00
2013-9-24,62,47,34,46,40,32,96,78,46,30.08,29.94,11,3,16,0.00
2013-9-25,65,49,37,51,44,36,96,83,51,30.00,29.89,10,2,12,0.00
2013-9-26,63,51,40,53,46,39,96,85,55,30.12,29.97,9,2,14,0.01
2013-9-27,65,50,39,54,46,38,96,86,66,30.26,30.12,9,2,12,0.01
2013-9-28,71,54,43,53,47,41,96,80,48,30.33,30.22,6,1,9,0.00
2013-9-29,68,52,38,55,46,37,96,84,56,30.22,30.03,5,0,9,0.00
2013-9-30,69,52,41,55,47,40,96,84,48,30.07,29.95,6,1,9,0.01
2013-10-1,70,54,40,59,50,39,96,86,60,30.02,29.91,10,1,19,0.01
2013-10-2,71,57,45,61,53,44,96,87,65,30.03,29.92,10,2,18,0.01
2013-10-3,70,56,45,54,48,44,96,78,39,30.11,30.01,8,1,11,0.02
2013-10-4,74,62,52,65,58,50,95,88,70,30.04,29.95,8,1,12,0.86
2013-10-5,72,64,60,64,61,59,96,91,73,30.03,29.96,6,1,10,1.22
2013-10-6,66,63,61,63,61,59,96,93,87,29.99,29.92,8,2,12,0.06
2013-10-7,67,60,49,64,56,42,94,88,75,29.92,29.60,17,4,27,0.86
2013-10-8,58,50,41,44,42,39,92,77,54,30.34,29.92,13,5,17,0.86
2013-10-9,65,48,35,44,38,32,96,73,30,30.43,30.32,8,1,9,0.00
2013-10-10,59,47,36,47,41,35,95,83,43,30.32,30.15,6,0,7,0.02
2013-10-11,72,56,46,48,42,30,85,63,30,30.14,30.04,7,1,11,0.02
2013-10-12,70,54,39,51,45,35,94,73,46,30.25,30.08,9,1,14,0.00
2013-10-13,68,52,41,51,46,40,96,80,46,30.32,30.25,7,1,10,0.00
2013-10-14,65,54,46,55,50,45,94,85,68,30.31,30.19,9,2,11,0.00
2013-10-15,68,58,53,56,52,48,94,82,60,30.22,30.05,7,1,11,0.00
2013-10-16,59,54,49,54,49,40,90,83,69,30.05,29.85,9,1,11,0.00
2013-10-17,67,58,51,58,51,43,94,78,44,29.85,29.56,10,2,16,0.25
2013-10-18,60,51,40,58,43,38,91,77,54,29.92,29.57,16,6,26,0.25
2013-10-19,58,46,35,46,40,34,96,81,50,29.95,29.71,8,2,18,0.06
2013-10-20,51,45,38,45,37,34,91,76,55,30.02,29.70,13,5,21,0.07
2013-10-21,61,48,35,42,37,33,95,71,44,30.12,29.91,7,2,16,0.00
2013-10-22,52,45,33,46,39,30,90,80,53,29.90,29.71,14,3,19,0.02
2013-10-23,44,37,30,35,32,29,94,84,61,29.81,29.64,10,2,18,0.02
2013-10-24,41,37,31,33,29,27,91,75,57,29.95,29.76,17,6,22,0.01
2013-10-25,42,37,32,34,31,30,91,81,67,30.19,29.95,14,6,21,0.04
2013-10-26,46,37,27,30,28,25,94,70,46,30.18,29.82,10,2,21,0.01
2013-10-27,44,40,32,34,32,28,86,73,58,30.07,29.79,13,5,21,0.02
2013-10-28,46,37,29,36,31,27,92,80,65,30.34,30.06,13,3,19,0.01
2013-10-29,43,35,29,29,26,19,89,72,44,30.43,30.34,9,2,12,0.01
2013-10-30,55,41,33,42,36,25,95,84,59,30.34,30.18,7,1,10,0.01
2013-10-31,57,49,38,55,47,36,95,94,93,30.23,29.68,10,2,18,0.58
2013-11-1,62,56,42,58,50,39,94,80,54,29.66,29.40,15,4,21,0.22
2013-11-2,53,44,37,45,40,35,95,87,68,29.79,29.61,8,2,15,0.02
2013-11-3,43,31,24,40,27,18,94,84,71,30.49,29.79,14,6,20,0.03
2013-11-4,40,28,18,23,18,15,89,69,42,30.68,30.49,8,2,17,0.00
2013-11-5,48,39,28,36,31,18,85,74,58,30.66,30.45,8,2,15,0.00
2013-11-6,54,47,41,47,43,37,91,85,74,30.47,29.97,9,2,16,0.00
2013-11-7,52,43,33,50,40,28,94,87,74,29.96,29.79,15,6,24,0.42
2013-11-8,35,32,31,30,28,26,90,82,76,30.18,29.87,16,8,25,0.42
2013-11-9,40,35,31,30,28,26,89,74,58,30.25,29.94,11,2,17,0.01
2013-11-10,41,38,34,36,32,29,92,80,68,30.04,29.83,19,6,31,0.15
2013-11-11,42,37,33,33,29,27,90,74,60,30.16,29.95,24,4,28,0.03
2013-11-12,36,25,21,33,21,16,95,84,74,30.31,29.95,17,9,25,0.05
2013-11-13,28,21,17,18,15,12,91,78,63,30.40,30.24,18,6,20,0.00
2013-11-14,45,30,20,23,18,15,86,64,31,30.25,30.15,9,2,15,0.00
2013-11-15,53,35,25,29,23,17,83,65,25,30.25,30.14,7,1,10,0.00
2013-11-16,52,39,31,40,34,27,95,82,55,30.33,30.23,5,1,13,0.04
2013-11-17,54,49,41,53,48,38,95,94,88,30.24,29.65,14,4,20,0.10
2013-11-18,56,48,34,54,38,26,94,71,48,29.76,29.49,19,6,36,0.03
2013-11-19,33,30,27,28,24,20,88,78,67,30.38,29.76,20,10,28,0.03
2013-11-20,38,25,16,20,16,9,87,69,31,30.62,30.38,8,2,13,0.00
2013-11-21,40,31,18,34,25,14,88,79,65,30.63,30.40,10,1,16,0.00
2013-11-22,46,41,38,43,39,34,95,92,85,30.39,29.92,18,3,25,0.16
2013-11-23,37,27,15,34,22,11,90,79,68,30.04,29.87,20,10,33,0.17
2013-11-24,18,14,12,12,9,5,89,79,62,30.36,29.97,26,12,30,0.00
2013-11-25,29,20,12,16,12,9,87,72,55,30.46,30.28,11,3,18,0.00
2013-11-26,37,29,23,36,26,13,95,89,60,30.30,29.83,8,1,13,0.40
2013-11-27,46,33,23,46,31,19,96,92,83,29.80,29.45,16,7,30,0.14
2013-11-28,23,17,11,20,12,8,90,81,65,30.47,29.70,16,6,29,0.14
2013-11-29,24,17,7,17,13,5,93,83,66,30.77,30.47,10,2,16,0.00
2013-11-30,27,17,3,24,10,0,89,77,51,30.77,30.40,10,2,14,0.00
2013-12-1,38,31,24,30,27,22,92,85,71,30.40,30.03,10,1,14,0.01
2013-12-2,38,33,28,34,30,26,94,91,83,30.03,29.89,3,0,5,0.02
2013-12-3,39,33,26,35,30,25,95,91,84,30.02,29.91,9,2,12,0.00
2013-12-4,48,34,24,40,31,23,95,90,70,30.14,30.02,3,0,10,0.00
2013-12-5,50,47,41,49,46,38,96,94,91,30.11,29.90,10,3,14,0.18
2013-12-6,49,34,27,48,32,25,100,90,82,30.16,29.85,15,5,15,0.29
2013-12-7,28,25,18,26,19,12,92,78,65,30.52,30.13,17,7,21,0.00
2013-12-8,24,20,14,19,15,11,90,80,73,30.61,30.39,5,1,8,0.00
2013-12-9,36,31,21,34,29,19,94,89,84,30.38,29.96,11,3,18,0.10
2013-12-10,31,24,17,27,20,11,91,83,68,30.04,29.84,11,5,18,0.10
2013-12-11,23,19,16,16,14,11,89,79,67,30.25,30.04,12,4,18,0.00
2013-12-12,15,10,2,12,4,-2,92,77,62,30.34,30.10,14,3,18,0.00
2013-12-13,22,16,13,15,11,6,84,78,70,30.34,30.06,17,5,23,0.00
2013-12-14,20,16,12,19,13,7,96,87,78,30.45,29.89,8,2,12,0.00
2013-12-15,29,25,21,27,22,16,94,88,75,29.87,29.54,17,5,22,0.00
2013-12-16,23,12,-4,16,6,-8,87,78,68,30.22,29.75,18,6,25,0.00
2013-12-17,23,12,-7,20,10,-10,92,89,84,30.23,30.01,5,1,11,0.00
2013-12-18,25,21,9,21,18,6,93,85,76,30.12,30.00,11,4,22,0.00
2013-12-19,38,28,21,27,22,17,91,78,60,30.13,30.01,8,1,13,0.13
2013-12-20,39,34,28,36,32,26,94,92,80,30.12,29.95,4,0,6,0.25
2013-12-21,52,42,36,48,40,35,96,94,84,29.98,29.85,6,1,9,0.39
2013-12-22,59,55,48,56,52,47,96,90,80,29.89,29.66,8,3,18,0.06
2013-12-23,50,40,26,48,38,21,96,91,76,30.14,29.87,19,4,20,0.17
2013-12-24,26,21,10,23,17,5,91,84,78,30.32,30.11,15,6,20,0.17
2013-12-25,19,12,4,10,6,0,85,75,60,30.51,30.33,13,3,16,0.00
2013-12-26,26,22,17,23,18,9,92,84,71,30.36,30.12,9,2,17,0.00
2013-12-27,28,23,16,23,19,13,91,84,79,30.27,30.21,13,3,17,0.00
2013-12-28,41,28,15,30,23,12,93,82,62,30.21,30.03,17,2,19,0.13
2013-12-29,35,31,26,33,29,24,95,93,87,30.02,29.54,7,1,13,0.89
2013-12-30,35,20,4,33,16,1,95,84,74,30.15,29.66,18,7,26,0.94
2013-12-31,20,13,5,16,9,2,89,84,73,30.21,30.00,14,4,28,0.00
2014-1-1,18,14,8,14,9,5,89,81,71,30.36,30.21,10,2,20,0.00
2014-1-2,19,15,3,16,12,0,90,88,84,30.28,29.79,12,2,15,0.00